createdAt,value
2023-03-06T00:02:24.800Z,28.60
2023-03-06T00:04:53.700Z,28.70
2023-03-06T00:07:22.793Z,28.80
2023-03-06T00:09:51.793Z,29.00
2023-03-06T00:12:26.072Z,29.10
2023-03-06T00:14:53.978Z,29.20
2023-03-06T00:17:22.982Z,29.30
2023-03-06T00:19:51.773Z,29.30
2023-03-06T00:22:20.855Z,29.40
2023-03-06T00:24:49.875Z,29.40
2023-03-06T00:27:18.946Z,29.50
2023-03-06T00:29:47.732Z,29.50
2023-03-06T00:32:16.768Z,29.50
2023-03-06T00:34:45.930Z,29.50
2023-03-06T00:37:15.319Z,29.60
2023-03-06T00:39:44.224Z,29.60
2023-03-06T00:42:13.331Z,29.60
2023-03-06T00:44:42.325Z,29.60
2023-03-06T00:47:11.396Z,29.70
2023-03-06T00:49:40.405Z,29.70
2023-03-06T00:52:09.388Z,29.70
2023-03-06T00:54:39.403Z,29.70
2023-03-06T00:57:08.409Z,29.60
2023-03-06T00:59:37.182Z,29.60
2023-03-06T01:02:06.214Z,29.60
2023-03-06T01:04:35.493Z,29.60
2023-03-06T01:07:05.811Z,29.60
2023-03-06T01:09:34.693Z,29.60
2023-03-06T01:12:03.503Z,29.70
2023-03-06T01:14:32.788Z,29.60
2023-03-06T01:17:01.779Z,29.70
2023-03-06T01:19:30.688Z,29.70
2023-03-06T01:21:59.760Z,29.70
2023-03-06T01:24:28.759Z,29.70
2023-03-06T01:26:57.978Z,29.70
2023-03-06T01:29:26.839Z,29.70
2023-03-06T01:31:55.887Z,29.70
2023-03-06T01:34:24.945Z,29.80
2023-03-06T01:36:54.149Z,29.80
2023-03-06T01:39:23.436Z,29.80
2023-03-06T01:41:52.132Z,29.70
2023-03-06T01:44:21.008Z,29.80
2023-03-06T01:46:49.795Z,29.80
2023-03-06T01:49:18.898Z,29.80
2023-03-06T01:51:48.000Z,29.80
2023-03-06T01:54:16.998Z,29.80
2023-03-06T01:56:45.986Z,29.80
2023-03-06T01:59:15.282Z,29.90
2023-03-06T02:01:44.177Z,29.90
2023-03-06T02:04:14.506Z,29.90
2023-03-06T02:06:43.615Z,30.00
2023-03-06T02:09:12.803Z,30.00
2023-03-06T02:11:41.714Z,30.10
2023-03-06T02:14:10.791Z,30.10
2023-03-06T02:16:39.814Z,30.10
2023-03-06T02:19:08.991Z,30.10
2023-03-06T02:21:37.781Z,30.20
2023-03-06T02:24:07.989Z,30.20
2023-03-06T02:26:37.075Z,30.20
2023-03-06T02:29:06.998Z,30.20
2023-03-06T02:31:36.003Z,30.20
2023-03-06T02:34:04.778Z,30.20
2023-03-06T02:36:34.790Z,30.30
2023-03-06T02:39:03.917Z,30.30
2023-03-06T02:41:33.502Z,30.40
2023-03-06T02:44:02.909Z,30.40
2023-03-06T02:46:31.897Z,30.40
2023-03-06T02:49:00.587Z,30.40
2023-03-06T02:51:29.794Z,30.50
2023-03-06T02:53:58.666Z,30.50
2023-03-06T02:56:27.682Z,30.50
2023-03-06T02:58:57.781Z,30.60
2023-03-06T03:01:26.891Z,30.60
2023-03-06T03:03:55.975Z,30.60
2023-03-06T03:06:25.278Z,30.60
2023-03-06T03:08:54.367Z,30.60
2023-03-06T03:11:23.868Z,30.70
2023-03-06T03:13:53.379Z,30.60
2023-03-06T03:16:23.601Z,30.70
2023-03-06T03:18:52.604Z,30.70
2023-03-06T03:21:22.818Z,30.70
2023-03-06T03:23:53.137Z,30.70
2023-03-06T03:26:21.942Z,30.80
2023-03-06T03:28:52.259Z,30.70
2023-03-06T03:31:22.697Z,30.80
2023-03-06T03:33:51.777Z,30.80
2023-03-06T03:36:21.086Z,30.80
2023-03-06T03:38:50.173Z,30.90
2023-03-06T03:41:19.783Z,30.90
2023-03-06T03:43:48.806Z,30.90
2023-03-06T03:46:18.949Z,30.90
2023-03-06T03:48:47.897Z,31.00
2023-03-06T03:51:17.295Z,31.00
2023-03-06T03:53:47.841Z,31.00
2023-03-06T03:56:18.456Z,30.90
2023-03-06T03:58:51.331Z,30.70
2023-03-06T04:01:20.944Z,30.60
2023-03-06T04:03:50.459Z,30.40
2023-03-06T04:06:19.655Z,30.30
2023-03-06T04:08:48.748Z,30.30
2023-03-06T04:11:17.734Z,30.40
2023-03-06T04:13:47.456Z,30.40
2023-03-06T04:16:17.824Z,30.40
2023-03-06T04:18:47.198Z,30.50
2023-03-06T04:21:17.726Z,30.50
